sensor_id;sensor_type;location;lat;lon;timestamp;P1;durP1;ratioP1;P2;durP2;ratioP2
47239;SDS011;32978;53.586;10.052;2023-11-19T00:04:16;11.57;;;9.07;;
47239;SDS011;32978;53.586;10.052;2023-11-19T00:09:12;11.25;;;10.05;;
47239;SDS011;32978;53.586;10.052;2023-11-19T00:14:08;11.13;;;9.93;;
47239;SDS011;32978;53.586;10.052;2023-11-19T00:19:05;11.88;;;9.30;;
47239;SDS011;32978;53.586;10.052;2023-11-19T00:24:01;9.32;;;8.27;;
47239;SDS011;32978;53.586;10.052;2023-11-19T00:28:58;10.07;;;8.95;;
47239;SDS011;32978;53.586;10.052;2023-11-19T00:33:55;8.65;;;7.85;;
47239;SDS011;32978;53.586;10.052;2023-11-19T00:38:51;10.55;;;8.00;;
47239;SDS011;32978;53.586;10.052;2023-11-19T00:43:50;8.80;;;7.90;;
47239;SDS011;32978;53.586;10.052;2023-11-19T00:48:47;8.27;;;7.45;;
47239;SDS011;32978;53.586;10.052;2023-11-19T00:53:43;7.90;;;7.10;;
47239;SDS011;32978;53.586;10.052;2023-11-19T00:58:39;7.72;;;7.00;;
47239;SDS011;32978;53.586;10.052;2023-11-19T01:03:36;7.97;;;7.20;;
47239;SDS011;32978;53.586;10.052;2023-11-19T01:08:33;8.35;;;7.10;;
47239;SDS011;32978;53.586;10.052;2023-11-19T01:13:32;7.95;;;7.10;;
47239;SDS011;32978;53.586;10.052;2023-11-19T01:18:28;9.73;;;6.53;;
47239;SDS011;32978;53.586;10.052;2023-11-19T01:23:24;6.95;;;6.32;;
47239;SDS011;32978;53.586;10.052;2023-11-19T01:28:20;6.30;;;5.70;;
47239;SDS011;32978;53.586;10.052;2023-11-19T01:33:17;8.13;;;6.18;;
47239;SDS011;32978;53.586;10.052;2023-11-19T01:38:13;6.82;;;6.13;;
47239;SDS011;32978;53.586;10.052;2023-11-19T01:43:09;7.10;;;6.40;;
47239;SDS011;32978;53.586;10.052;2023-11-19T01:48:07;6.80;;;6.20;;
47239;SDS011;32978;53.586;10.052;2023-11-19T01:53:07;6.55;;;6.05;;
47239;SDS011;32978;53.586;10.052;2023-11-19T01:58:04;6.30;;;5.80;;
47239;SDS011;32978;53.586;10.052;2023-11-19T02:03:00;6.55;;;5.95;;
47239;SDS011;32978;53.586;10.052;2023-11-19T02:07:57;5.63;;;5.13;;
47239;SDS011;32978;53.586;10.052;2023-11-19T02:12:53;6.20;;;5.60;;
47239;SDS011;32978;53.586;10.052;2023-11-19T02:23:18;5.25;;;4.80;;
47239;SDS011;32978;53.586;10.052;2023-11-19T02:28:14;5.80;;;5.30;;
47239;SDS011;32978;53.586;10.052;2023-11-19T02:33:10;6.05;;;5.53;;
47239;SDS011;32978;53.586;10.052;2023-11-19T02:38:07;5.65;;;5.15;;
47239;SDS011;32978;53.586;10.052;2023-11-19T02:43:04;5.43;;;5.03;;
47239;SDS011;32978;53.586;10.052;2023-11-19T02:48:01;5.35;;;4.95;;
47239;SDS011;32978;53.586;10.052;2023-11-19T02:52:58;5.60;;;5.10;;
47239;SDS011;32978;53.586;10.052;2023-11-19T02:58:04;5.97;;;5.45;;
47239;SDS011;32978;53.586;10.052;2023-11-19T03:03:09;5.63;;;5.13;;
47239;SDS011;32978;53.586;10.052;2023-11-19T03:08:17;5.88;;;5.30;;
47239;SDS011;32978;53.586;10.052;2023-11-19T03:13:16;5.20;;;4.80;;
47239;SDS011;32978;53.586;10.052;2023-11-19T03:18:15;6.45;;;5.28;;
47239;SDS011;32978;53.586;10.052;2023-11-19T03:23:12;5.43;;;5.03;;
47239;SDS011;32978;53.586;10.052;2023-11-19T03:28:08;5.47;;;5.07;;
47239;SDS011;32978;53.586;10.052;2023-11-19T03:33:05;5.50;;;5.10;;
47239;SDS011;32978;53.586;10.052;2023-11-19T03:38:01;5.18;;;4.78;;
47239;SDS011;32978;53.586;10.052;2023-11-19T03:42:58;5.50;;;5.00;;
47239;SDS011;32978;53.586;10.052;2023-11-19T03:47:54;5.25;;;4.85;;
47239;SDS011;32978;53.586;10.052;2023-11-19T03:52:51;6.28;;;5.78;;
47239;SDS011;32978;53.586;10.052;2023-11-19T03:57:48;6.18;;;5.68;;
47239;SDS011;32978;53.586;10.052;2023-11-19T04:02:45;6.00;;;5.50;;
47239;SDS011;32978;53.586;10.052;2023-11-19T04:07:43;6.10;;;5.60;;
47239;SDS011;32978;53.586;10.052;2023-11-19T04:12:39;6.07;;;5.57;;
47239;SDS011;32978;53.586;10.052;2023-11-19T04:17:35;6.47;;;5.97;;
47239;SDS011;32978;53.586;10.052;2023-11-19T04:22:32;7.43;;;6.57;;
47239;SDS011;32978;53.586;10.052;2023-11-19T04:27:28;7.57;;;6.88;;
47239;SDS011;32978;53.586;10.052;2023-11-19T04:32:26;7.15;;;6.55;;
47239;SDS011;32978;53.586;10.052;2023-11-19T04:37:23;7.60;;;7.00;;
47239;SDS011;32978;53.586;10.052;2023-11-19T04:42:21;8.20;;;7.50;;
47239;SDS011;32978;53.586;10.052;2023-11-19T04:47:18;8.63;;;7.90;;
47239;SDS011;32978;53.586;10.052;2023-11-19T04:52:14;9.23;;;8.43;;
47239;SDS011;32978;53.586;10.052;2023-11-19T04:57:10;11.15;;;9.15;;
47239;SDS011;32978;53.586;10.052;2023-11-19T05:02:07;10.77;;;9.75;;
47239;SDS011;32978;53.586;10.052;2023-11-19T05:07:04;11.73;;;10.52;;
47239;SDS011;32978;53.586;10.052;2023-11-19T05:12:00;12.40;;;11.10;;
47239;SDS011;32978;53.586;10.052;2023-11-19T05:16:58;12.43;;;11.13;;
47239;SDS011;32978;53.586;10.052;2023-11-19T05:21:55;12.75;;;11.45;;
47239;SDS011;32978;53.586;10.052;2023-11-19T05:26:51;13.55;;;12.30;;
47239;SDS011;32978;53.586;10.052;2023-11-19T05:31:48;14.07;;;12.20;;
47239;SDS011;32978;53.586;10.052;2023-11-19T05:36:45;14.88;;;13.40;;
47239;SDS011;32978;53.586;10.052;2023-11-19T05:41:41;13.80;;;12.40;;
47239;SDS011;32978;53.586;10.052;2023-11-19T05:46:37;13.73;;;12.32;;
47239;SDS011;32978;53.586;10.052;2023-11-19T05:51:38;18.52;;;14.43;;
47239;SDS011;32978;53.586;10.052;2023-11-19T05:56:35;15.82;;;14.02;;
47239;SDS011;32978;53.586;10.052;2023-11-19T06:01:32;18.10;;;14.18;;
47239;SDS011;32978;53.586;10.052;2023-11-19T06:06:28;24.33;;;14.32;;
47239;SDS011;32978;53.586;10.052;2023-11-19T06:11:25;17.00;;;14.70;;
47239;SDS011;32978;53.586;10.052;2023-11-19T06:16:23;24.10;;;16.17;;
47239;SDS011;32978;53.586;10.052;2023-11-19T06:21:20;24.83;;;19.02;;
47239;SDS011;32978;53.586;10.052;2023-11-19T06:26:16;27.70;;;19.67;;
47239;SDS011;32978;53.586;10.052;2023-11-19T06:31:13;30.88;;;18.50;;
47239;SDS011;32978;53.586;10.052;2023-11-19T06:36:14;34.35;;;17.27;;
47239;SDS011;32978;53.586;10.052;2023-11-19T06:41:12;35.78;;;16.98;;
47239;SDS011;32978;53.586;10.052;2023-11-19T06:46:15;39.92;;;18.83;;
47239;SDS011;32978;53.586;10.052;2023-11-19T06:51:12;32.40;;;15.77;;
47239;SDS011;32978;53.586;10.052;2023-11-19T06:56:22;30.73;;;15.60;;
47239;SDS011;32978;53.586;10.052;2023-11-19T07:01:19;36.13;;;16.52;;
47239;SDS011;32978;53.586;10.052;2023-11-19T07:06:15;38.83;;;14.38;;
47239;SDS011;32978;53.586;10.052;2023-11-19T07:11:12;27.25;;;13.13;;
47239;SDS011;32978;53.586;10.052;2023-11-19T07:16:10;30.90;;;11.75;;
47239;SDS011;32978;53.586;10.052;2023-11-19T07:21:06;30.13;;;10.93;;
47239;SDS011;32978;53.586;10.052;2023-11-19T07:26:06;27.77;;;10.63;;
47239;SDS011;32978;53.586;10.052;2023-11-19T07:31:05;38.65;;;9.82;;
47239;SDS011;32978;53.586;10.052;2023-11-19T07:36:03;33.47;;;10.23;;
47239;SDS011;32978;53.586;10.052;2023-11-19T07:41:00;26.10;;;8.05;;
47239;SDS011;32978;53.586;10.052;2023-11-19T07:45:56;25.08;;;8.52;;
47239;SDS011;32978;53.586;10.052;2023-11-19T07:50:55;26.67;;;7.95;;
47239;SDS011;32978;53.586;10.052;2023-11-19T07:55:52;26.77;;;7.40;;
47239;SDS011;32978;53.586;10.052;2023-11-19T08:00:48;28.90;;;7.93;;
47239;SDS011;32978;53.586;10.052;2023-11-19T08:05:44;26.38;;;7.88;;
47239;SDS011;32978;53.586;10.052;2023-11-19T08:10:42;27.98;;;7.47;;
47239;SDS011;32978;53.586;10.052;2023-11-19T08:15:39;23.35;;;7.55;;
47239;SDS011;32978;53.586;10.052;2023-11-19T08:20:37;33.72;;;8.02;;
47239;SDS011;32978;53.586;10.052;2023-11-19T08:25:33;32.15;;;8.23;;
47239;SDS011;32978;53.586;10.052;2023-11-19T08:30:30;23.77;;;7.22;;
47239;SDS011;32978;53.586;10.052;2023-11-19T08:35:26;26.33;;;7.78;;
47239;SDS011;32978;53.586;10.052;2023-11-19T08:40:24;34.40;;;8.32;;
47239;SDS011;32978;53.586;10.052;2023-11-19T08:45:22;32.45;;;8.27;;
47239;SDS011;32978;53.586;10.052;2023-11-19T08:50:18;30.90;;;8.63;;
47239;SDS011;32978;53.586;10.052;2023-11-19T08:55:15;29.95;;;8.48;;
47239;SDS011;32978;53.586;10.052;2023-11-19T09:00:11;36.58;;;7.95;;
47239;SDS011;32978;53.586;10.052;2023-11-19T09:05:11;41.08;;;9.35;;
47239;SDS011;32978;53.586;10.052;2023-11-19T09:10:09;36.72;;;9.43;;
47239;SDS011;32978;53.586;10.052;2023-11-19T09:15:07;34.20;;;9.07;;
47239;SDS011;32978;53.586;10.052;2023-11-19T09:20:06;34.28;;;9.55;;
47239;SDS011;32978;53.586;10.052;2023-11-19T09:25:05;36.17;;;9.00;;
47239;SDS011;32978;53.586;10.052;2023-11-19T09:30:01;35.03;;;8.63;;
47239;SDS011;32978;53.586;10.052;2023-11-19T09:35:00;40.30;;;8.95;;
47239;SDS011;32978;53.586;10.052;2023-11-19T09:39:56;33.88;;;9.48;;
47239;SDS011;32978;53.586;10.052;2023-11-19T09:44:53;33.30;;;8.95;;
47239;SDS011;32978;53.586;10.052;2023-11-19T09:49:50;29.92;;;9.85;;
47239;SDS011;32978;53.586;10.052;2023-11-19T09:54:47;38.03;;;8.45;;
47239;SDS011;32978;53.586;10.052;2023-11-19T09:59:43;44.20;;;10.68;;
47239;SDS011;32978;53.586;10.052;2023-11-19T10:04:41;42.15;;;9.38;;
47239;SDS011;32978;53.586;10.052;2023-11-19T10:09:38;33.88;;;9.48;;
47239;SDS011;32978;53.586;10.052;2023-11-19T10:14:35;34.03;;;9.80;;
47239;SDS011;32978;53.586;10.052;2023-11-19T10:19:34;45.78;;;9.32;;
47239;SDS011;32978;53.586;10.052;2023-11-19T10:24:32;36.42;;;9.50;;
47239;SDS011;32978;53.586;10.052;2023-11-19T10:29:29;36.05;;;8.35;;
47239;SDS011;32978;53.586;10.052;2023-11-19T10:34:26;28.80;;;9.15;;
47239;SDS011;32978;53.586;10.052;2023-11-19T10:39:23;37.50;;;9.85;;
47239;SDS011;32978;53.586;10.052;2023-11-19T10:44:33;38.40;;;10.23;;
47239;SDS011;32978;53.586;10.052;2023-11-19T10:49:33;34.03;;;10.32;;
47239;SDS011;32978;53.586;10.052;2023-11-19T10:54:31;28.30;;;8.98;;
47239;SDS011;32978;53.586;10.052;2023-11-19T10:59:29;32.65;;;9.63;;
47239;SDS011;32978;53.586;10.052;2023-11-19T11:04:29;32.55;;;8.82;;
47239;SDS011;32978;53.586;10.052;2023-11-19T11:09:27;33.13;;;9.18;;
47239;SDS011;32978;53.586;10.052;2023-11-19T11:14:24;37.97;;;10.18;;
47239;SDS011;32978;53.586;10.052;2023-11-19T11:19:22;33.30;;;8.88;;
47239;SDS011;32978;53.586;10.052;2023-11-19T11:39:36;36.05;;;9.15;;
47239;SDS011;32978;53.586;10.052;2023-11-19T11:49:47;32.33;;;9.07;;
47239;SDS011;32978;53.586;10.052;2023-11-19T11:54:44;38.88;;;9.20;;
47239;SDS011;32978;53.586;10.052;2023-11-19T12:04:40;37.97;;;8.90;;
47239;SDS011;32978;53.586;10.052;2023-11-19T12:09:39;40.03;;;9.27;;
47239;SDS011;32978;53.586;10.052;2023-11-19T12:19:50;31.95;;;9.38;;
47239;SDS011;32978;53.586;10.052;2023-11-19T12:24:47;37.38;;;8.93;;
47239;SDS011;32978;53.586;10.052;2023-11-19T12:29:46;33.10;;;8.80;;
47239;SDS011;32978;53.586;10.052;2023-11-19T12:34:42;38.70;;;9.18;;
47239;SDS011;32978;53.586;10.052;2023-11-19T12:39:40;28.33;;;8.43;;
47239;SDS011;32978;53.586;10.052;2023-11-19T12:44:36;36.03;;;9.60;;
47239;SDS011;32978;53.586;10.052;2023-11-19T12:49:33;33.08;;;9.25;;
47239;SDS011;32978;53.586;10.052;2023-11-19T12:54:33;24.20;;;8.02;;
47239;SDS011;32978;53.586;10.052;2023-11-19T12:59:30;22.90;;;7.78;;
47239;SDS011;32978;53.586;10.052;2023-11-19T13:04:30;29.40;;;8.43;;
47239;SDS011;32978;53.586;10.052;2023-11-19T13:09:29;34.08;;;8.38;;
47239;SDS011;32978;53.586;10.052;2023-11-19T13:14:35;29.70;;;8.85;;
47239;SDS011;32978;53.586;10.052;2023-11-19T13:19:32;30.40;;;8.55;;
47239;SDS011;32978;53.586;10.052;2023-11-19T13:24:28;28.20;;;9.77;;
47239;SDS011;32978;53.586;10.052;2023-11-19T13:29:25;37.30;;;9.38;;
47239;SDS011;32978;53.586;10.052;2023-11-19T13:34:22;34.90;;;9.75;;
47239;SDS011;32978;53.586;10.052;2023-11-19T13:39:18;32.35;;;9.05;;
47239;SDS011;32978;53.586;10.052;2023-11-19T13:44:19;29.70;;;8.15;;
47239;SDS011;32978;53.586;10.052;2023-11-19T13:49:15;30.02;;;9.05;;
47239;SDS011;32978;53.586;10.052;2023-11-19T13:54:11;27.70;;;8.65;;
47239;SDS011;32978;53.586;10.052;2023-11-19T13:59:10;28.60;;;9.13;;
47239;SDS011;32978;53.586;10.052;2023-11-19T14:04:07;40.75;;;9.80;;
47239;SDS011;32978;53.586;10.052;2023-11-19T14:09:03;28.45;;;9.23;;
47239;SDS011;32978;53.586;10.052;2023-11-19T14:14:02;36.10;;;9.32;;
47239;SDS011;32978;53.586;10.052;2023-11-19T14:18:59;34.38;;;8.65;;
47239;SDS011;32978;53.586;10.052;2023-11-19T14:23:55;23.83;;;7.82;;
47239;SDS011;32978;53.586;10.052;2023-11-19T14:28:52;35.45;;;8.02;;
47239;SDS011;32978;53.586;10.052;2023-11-19T14:33:51;24.45;;;7.22;;
47239;SDS011;32978;53.586;10.052;2023-11-19T14:38:50;32.83;;;7.03;;
47239;SDS011;32978;53.586;10.052;2023-11-19T14:43:47;22.75;;;7.05;;
47239;SDS011;32978;53.586;10.052;2023-11-19T14:48:44;24.00;;;7.45;;
47239;SDS011;32978;53.586;10.052;2023-11-19T14:53:40;30.23;;;7.30;;
47239;SDS011;32978;53.586;10.052;2023-11-19T14:58:37;23.02;;;6.90;;
47239;SDS011;32978;53.586;10.052;2023-11-19T15:03:33;34.85;;;8.65;;
47239;SDS011;32978;53.586;10.052;2023-11-19T15:08:49;19.17;;;5.75;;
47239;SDS011;32978;53.586;10.052;2023-11-19T15:13:46;17.10;;;5.65;;
47239;SDS011;32978;53.586;10.052;2023-11-19T15:18:42;13.30;;;4.85;;
47239;SDS011;32978;53.586;10.052;2023-11-19T15:23:38;13.23;;;5.22;;
47239;SDS011;32978;53.586;10.052;2023-11-19T15:28:37;7.97;;;4.40;;
47239;SDS011;32978;53.586;10.052;2023-11-19T15:33:33;9.23;;;4.80;;
47239;SDS011;32978;53.586;10.052;2023-11-19T15:38:29;9.20;;;4.50;;
47239;SDS011;32978;53.586;10.052;2023-11-19T15:43:26;10.10;;;5.68;;
47239;SDS011;32978;53.586;10.052;2023-11-19T15:48:22;13.95;;;5.35;;
47239;SDS011;32978;53.586;10.052;2023-11-19T15:53:18;12.52;;;5.22;;
47239;SDS011;32978;53.586;10.052;2023-11-19T15:58:15;13.15;;;5.93;;
47239;SDS011;32978;53.586;10.052;2023-11-19T16:03:11;22.10;;;6.57;;
47239;SDS011;32978;53.586;10.052;2023-11-19T16:08:08;24.60;;;7.95;;
47239;SDS011;32978;53.586;10.052;2023-11-19T16:13:06;28.33;;;7.50;;
47239;SDS011;32978;53.586;10.052;2023-11-19T16:18:03;32.60;;;7.22;;
47239;SDS011;32978;53.586;10.052;2023-11-19T16:23:00;24.48;;;6.82;;
47239;SDS011;32978;53.586;10.052;2023-11-19T16:27:56;36.35;;;6.75;;
47239;SDS011;32978;53.586;10.052;2023-11-19T16:32:53;27.85;;;7.18;;
47239;SDS011;32978;53.586;10.052;2023-11-19T16:37:52;26.83;;;7.53;;
47239;SDS011;32978;53.586;10.052;2023-11-19T16:42:48;23.50;;;7.25;;
47239;SDS011;32978;53.586;10.052;2023-11-19T16:47:45;25.70;;;6.18;;
47239;SDS011;32978;53.586;10.052;2023-11-19T16:52:42;23.33;;;6.32;;
47239;SDS011;32978;53.586;10.052;2023-11-19T16:57:41;28.35;;;7.30;;
47239;SDS011;32978;53.586;10.052;2023-11-19T17:02:40;22.57;;;7.17;;
47239;SDS011;32978;53.586;10.052;2023-11-19T17:07:41;30.05;;;7.90;;
47239;SDS011;32978;53.586;10.052;2023-11-19T17:12:37;19.92;;;6.95;;
47239;SDS011;32978;53.586;10.052;2023-11-19T17:17:34;26.55;;;7.07;;
47239;SDS011;32978;53.586;10.052;2023-11-19T17:22:35;23.48;;;7.90;;
47239;SDS011;32978;53.586;10.052;2023-11-19T17:27:32;19.02;;;6.88;;
47239;SDS011;32978;53.586;10.052;2023-11-19T17:32:29;18.85;;;7.07;;
47239;SDS011;32978;53.586;10.052;2023-11-19T17:37:27;16.35;;;6.10;;
47239;SDS011;32978;53.586;10.052;2023-11-19T17:42:23;19.20;;;6.80;;
47239;SDS011;32978;53.586;10.052;2023-11-19T17:47:20;17.15;;;7.00;;
47239;SDS011;32978;53.586;10.052;2023-11-19T17:52:17;23.30;;;8.30;;
47239;SDS011;32978;53.586;10.052;2023-11-19T17:57:14;14.15;;;7.05;;
47239;SDS011;32978;53.586;10.052;2023-11-19T18:02:11;12.13;;;6.70;;
47239;SDS011;32978;53.586;10.052;2023-11-19T18:07:07;13.10;;;6.55;;
47239;SDS011;32978;53.586;10.052;2023-11-19T18:12:05;16.92;;;6.70;;
47239;SDS011;32978;53.586;10.052;2023-11-19T18:17:11;13.80;;;6.10;;
47239;SDS011;32978;53.586;10.052;2023-11-19T18:22:07;14.95;;;6.95;;
47239;SDS011;32978;53.586;10.052;2023-11-19T18:27:04;12.68;;;6.10;;
47239;SDS011;32978;53.586;10.052;2023-11-19T18:32:03;15.23;;;5.70;;
47239;SDS011;32978;53.586;10.052;2023-11-19T18:37:00;18.20;;;7.18;;
47239;SDS011;32978;53.586;10.052;2023-11-19T18:41:56;24.70;;;7.40;;
47239;SDS011;32978;53.586;10.052;2023-11-19T18:46:53;19.48;;;7.68;;
47239;SDS011;32978;53.586;10.052;2023-11-19T18:51:49;12.90;;;6.05;;
47239;SDS011;32978;53.586;10.052;2023-11-19T18:56:45;18.10;;;8.27;;
47239;SDS011;32978;53.586;10.052;2023-11-19T19:01:42;17.27;;;7.40;;
47239;SDS011;32978;53.586;10.052;2023-11-19T19:06:40;28.35;;;7.90;;
47239;SDS011;32978;53.586;10.052;2023-11-19T19:11:37;23.80;;;7.55;;
47239;SDS011;32978;53.586;10.052;2023-11-19T19:16:33;29.98;;;8.68;;
47239;SDS011;32978;53.586;10.052;2023-11-19T19:21:30;34.58;;;9.52;;
47239;SDS011;32978;53.586;10.052;2023-11-19T19:26:27;27.95;;;9.80;;
47239;SDS011;32978;53.586;10.052;2023-11-19T19:31:24;25.13;;;8.65;;
47239;SDS011;32978;53.586;10.052;2023-11-19T19:36:21;23.98;;;9.30;;
47239;SDS011;32978;53.586;10.052;2023-11-19T19:41:17;30.42;;;10.13;;
47239;SDS011;32978;53.586;10.052;2023-11-19T19:46:14;29.73;;;9.23;;
47239;SDS011;32978;53.586;10.052;2023-11-19T19:51:10;20.10;;;8.27;;
47239;SDS011;32978;53.586;10.052;2023-11-19T19:56:07;18.27;;;8.80;;
47239;SDS011;32978;53.586;10.052;2023-11-19T20:01:05;22.17;;;8.50;;
47239;SDS011;32978;53.586;10.052;2023-11-19T20:06:04;21.65;;;8.68;;
47239;SDS011;32978;53.586;10.052;2023-11-19T20:11:00;24.80;;;9.30;;
47239;SDS011;32978;53.586;10.052;2023-11-19T20:15:57;28.30;;;9.68;;
47239;SDS011;32978;53.586;10.052;2023-11-19T20:20:54;19.27;;;8.75;;
47239;SDS011;32978;53.586;10.052;2023-11-19T20:25:52;15.25;;;7.43;;
47239;SDS011;32978;53.586;10.052;2023-11-19T20:30:48;24.95;;;9.10;;
47239;SDS011;32978;53.586;10.052;2023-11-19T20:35:45;18.73;;;8.63;;
47239;SDS011;32978;53.586;10.052;2023-11-19T20:40:41;18.98;;;8.25;;
47239;SDS011;32978;53.586;10.052;2023-11-19T20:45:38;26.73;;;8.65;;
47239;SDS011;32978;53.586;10.052;2023-11-19T20:50:35;22.35;;;9.15;;
47239;SDS011;32978;53.586;10.052;2023-11-19T20:55:31;23.83;;;9.05;;
47239;SDS011;32978;53.586;10.052;2023-11-19T21:00:29;21.58;;;8.35;;
47239;SDS011;32978;53.586;10.052;2023-11-19T21:05:26;22.77;;;10.05;;
47239;SDS011;32978;53.586;10.052;2023-11-19T21:10:22;26.42;;;10.30;;
47239;SDS011;32978;53.586;10.052;2023-11-19T21:15:18;27.33;;;9.05;;
47239;SDS011;32978;53.586;10.052;2023-11-19T21:20:16;18.80;;;8.00;;
47239;SDS011;32978;53.586;10.052;2023-11-19T21:25:13;24.35;;;9.02;;
47239;SDS011;32978;53.586;10.052;2023-11-19T21:30:09;23.27;;;9.07;;
47239;SDS011;32978;53.586;10.052;2023-11-19T21:35:06;28.08;;;9.45;;
47239;SDS011;32978;53.586;10.052;2023-11-19T21:40:05;26.02;;;8.57;;
47239;SDS011;32978;53.586;10.052;2023-11-19T21:45:03;25.05;;;9.20;;
47239;SDS011;32978;53.586;10.052;2023-11-19T21:49:59;21.33;;;9.30;;
47239;SDS011;32978;53.586;10.052;2023-11-19T21:54:57;18.65;;;9.27;;
47239;SDS011;32978;53.586;10.052;2023-11-19T21:59:53;30.55;;;10.57;;
47239;SDS011;32978;53.586;10.052;2023-11-19T22:04:50;23.25;;;10.18;;
47239;SDS011;32978;53.586;10.052;2023-11-19T22:09:46;23.42;;;9.75;;
47239;SDS011;32978;53.586;10.052;2023-11-19T22:14:43;26.30;;;10.07;;
47239;SDS011;32978;53.586;10.052;2023-11-19T22:19:39;21.77;;;9.98;;
47239;SDS011;32978;53.586;10.052;2023-11-19T22:24:35;28.30;;;11.77;;
47239;SDS011;32978;53.586;10.052;2023-11-19T22:29:31;28.92;;;10.82;;
47239;SDS011;32978;53.586;10.052;2023-11-19T22:34:29;26.83;;;10.90;;
47239;SDS011;32978;53.586;10.052;2023-11-19T22:39:26;21.85;;;10.48;;
47239;SDS011;32978;53.586;10.052;2023-11-19T22:44:22;25.77;;;12.30;;
47239;SDS011;32978;53.586;10.052;2023-11-19T22:49:19;32.55;;;13.45;;
47239;SDS011;32978;53.586;10.052;2023-11-19T22:54:16;24.25;;;12.27;;
47239;SDS011;32978;53.586;10.052;2023-11-19T22:59:12;30.45;;;13.77;;
47239;SDS011;32978;53.586;10.052;2023-11-19T23:04:11;25.92;;;13.57;;
47239;SDS011;32978;53.586;10.052;2023-11-19T23:09:08;28.55;;;13.25;;
47239;SDS011;32978;53.586;10.052;2023-11-19T23:14:06;22.95;;;13.40;;
47239;SDS011;32978;53.586;10.052;2023-11-19T23:19:02;18.63;;;12.32;;
47239;SDS011;32978;53.586;10.052;2023-11-19T23:23:59;17.50;;;13.00;;
47239;SDS011;32978;53.586;10.052;2023-11-19T23:28:55;19.20;;;12.63;;
47239;SDS011;32978;53.586;10.052;2023-11-19T23:34:05;21.20;;;13.65;;
47239;SDS011;32978;53.586;10.052;2023-11-19T23:39:01;21.17;;;12.68;;
47239;SDS011;32978;53.586;10.052;2023-11-19T23:43:58;15.90;;;11.85;;
47239;SDS011;32978;53.586;10.052;2023-11-19T23:48:55;18.42;;;12.32;;
47239;SDS011;32978;53.586;10.052;2023-11-19T23:53:54;22.13;;;11.75;;
47239;SDS011;32978;53.586;10.052;2023-11-19T23:58:51;24.70;;;12.25;;
